createdAt,value
2017-10-11T00:01:01.485Z,13.80
2017-10-11T00:03:28.337Z,13.70
2017-10-11T00:05:55.142Z,13.70
2017-10-11T00:08:21.226Z,13.70
2017-10-11T00:10:48.062Z,13.80
2017-10-11T00:13:14.138Z,13.80
2017-10-11T00:15:40.222Z,13.80
2017-10-11T00:18:06.316Z,13.80
2017-10-11T00:20:32.391Z,13.80
2017-10-11T00:22:58.460Z,13.80
2017-10-11T00:25:25.308Z,13.80
2017-10-11T00:27:51.432Z,13.80
2017-10-11T00:30:17.554Z,13.90
2017-10-11T00:32:43.656Z,13.90
2017-10-11T00:35:09.733Z,13.90
2017-10-11T00:37:35.802Z,13.90
2017-10-11T00:40:01.915Z,13.90
2017-10-11T00:42:28.013Z,13.90
2017-10-11T00:44:54.109Z,13.90
2017-10-11T00:47:20.201Z,13.90
2017-10-11T00:49:46.322Z,14.00
2017-10-11T00:52:12.394Z,13.90
2017-10-11T00:54:38.497Z,13.90
2017-10-11T00:57:04.565Z,13.90
2017-10-11T00:59:30.629Z,13.90
2017-10-11T01:01:56.737Z,13.90
2017-10-11T01:04:22.804Z,13.90
2017-10-11T01:06:48.987Z,13.90
2017-10-11T01:09:15.263Z,13.90
2017-10-11T01:11:41.348Z,13.90
2017-10-11T01:14:07.483Z,13.90
2017-10-11T01:16:34.371Z,13.90
2017-10-11T01:19:00.489Z,13.80
2017-10-11T01:21:26.564Z,13.90
2017-10-11T01:23:52.699Z,13.80
2017-10-11T01:26:18.788Z,13.80
2017-10-11T01:28:45.599Z,13.80
2017-10-11T01:31:11.755Z,13.80
2017-10-11T01:33:37.924Z,13.80
2017-10-11T01:36:04.741Z,13.80
2017-10-11T01:38:30.829Z,13.80
2017-10-11T01:40:56.896Z,13.80
2017-10-11T01:43:23.025Z,13.80
2017-10-11T01:45:49.145Z,13.80
2017-10-11T01:48:15.221Z,13.80
2017-10-11T01:50:41.297Z,13.80
2017-10-11T01:53:07.397Z,13.80
2017-10-11T01:55:33.460Z,13.80
2017-10-11T01:58:00.267Z,13.80
2017-10-11T02:00:26.360Z,13.80
2017-10-11T02:02:53.228Z,13.80
2017-10-11T02:05:19.293Z,13.80
2017-10-11T02:07:45.404Z,13.80
2017-10-11T02:10:11.545Z,13.80
2017-10-11T02:12:37.616Z,13.80
2017-10-11T02:15:03.729Z,13.80
2017-10-11T02:17:29.928Z,13.80
2017-10-11T02:19:55.984Z,13.80
2017-10-11T02:22:22.840Z,13.70
2017-10-11T02:24:49.677Z,13.70
2017-10-11T02:27:15.949Z,13.70
2017-10-11T02:29:42.085Z,13.70
2017-10-11T02:32:08.248Z,13.70
2017-10-11T02:34:34.333Z,13.70
2017-10-11T02:37:01.169Z,13.60
2017-10-11T02:39:27.262Z,13.70
2017-10-11T02:41:53.340Z,13.70
2017-10-11T02:44:19.430Z,13.70
2017-10-11T02:46:45.520Z,13.60
2017-10-11T02:49:11.577Z,13.60
2017-10-11T02:51:38.420Z,13.60
2017-10-11T02:54:04.598Z,13.60
2017-10-11T02:56:30.877Z,13.60
2017-10-11T02:58:56.960Z,13.60
2017-10-11T03:01:23.756Z,13.50
2017-10-11T03:03:49.831Z,13.40
2017-10-11T03:06:15.968Z,13.40
2017-10-11T03:08:42.039Z,13.40
2017-10-11T03:11:08.112Z,13.40
2017-10-11T03:13:34.233Z,13.40
2017-10-11T03:16:00.293Z,13.40
2017-10-11T03:18:26.383Z,13.40
2017-10-11T03:20:52.481Z,13.40
2017-10-11T03:23:18.560Z,13.30
2017-10-11T03:25:45.709Z,13.30
2017-10-11T03:28:12.533Z,13.30
2017-10-11T03:30:38.616Z,13.30
2017-10-11T03:33:04.693Z,13.30
2017-10-11T03:35:31.573Z,13.30
2017-10-11T03:37:57.646Z,13.20
2017-10-11T03:40:23.781Z,13.20
2017-10-11T03:42:49.921Z,13.20
2017-10-11T03:45:15.989Z,13.20
2017-10-11T03:47:42.081Z,13.20
2017-10-11T03:50:08.884Z,13.20
2017-10-11T03:52:34.988Z,13.20
2017-10-11T03:55:01.082Z,13.20
2017-10-11T03:57:27.175Z,13.20
2017-10-11T03:59:53.251Z,13.20
2017-10-11T04:02:19.375Z,13.20
2017-10-11T04:04:45.457Z,13.20
2017-10-11T04:07:12.273Z,13.20
2017-10-11T04:09:38.369Z,13.20
2017-10-11T04:12:04.465Z,13.30
2017-10-11T04:14:30.550Z,13.30
2017-10-11T04:16:56.736Z,13.30
2017-10-11T04:19:22.819Z,13.30
2017-10-11T04:21:48.888Z,13.20
2017-10-11T04:24:15.024Z,13.30
2017-10-11T04:26:41.131Z,13.20
2017-10-11T04:29:07.258Z,13.30
2017-10-11T04:31:33.380Z,13.30
2017-10-11T04:34:00.258Z,13.40
2017-10-11T04:36:26.329Z,13.30
2017-10-11T04:38:52.441Z,13.30
2017-10-11T04:41:18.545Z,13.30
2017-10-11T04:43:45.413Z,13.40
2017-10-11T04:46:12.270Z,13.30
2017-10-11T04:48:38.363Z,13.30
2017-10-11T04:51:04.444Z,13.30
2017-10-11T04:53:31.373Z,13.30
2017-10-11T04:55:57.471Z,13.30
2017-10-11T04:58:23.538Z,13.30
2017-10-11T05:00:49.672Z,13.30
2017-10-11T05:03:15.741Z,13.30
2017-10-11T05:05:42.553Z,13.30
2017-10-11T05:08:08.649Z,13.30
2017-10-11T05:10:34.750Z,13.30
2017-10-11T05:13:00.812Z,13.30
2017-10-11T05:15:27.637Z,13.30
2017-10-11T05:17:53.713Z,13.20
2017-10-11T05:20:19.793Z,13.30
2017-10-11T05:22:45.896Z,13.30
2017-10-11T05:25:12.009Z,13.30
2017-10-11T05:27:38.830Z,13.30
2017-10-11T05:30:05.004Z,13.30
2017-10-11T05:32:31.808Z,13.30
2017-10-11T05:34:58.053Z,13.30
2017-10-11T05:37:24.325Z,13.30
2017-10-11T05:39:50.434Z,13.30
2017-10-11T05:42:16.514Z,13.30
2017-10-11T05:44:43.345Z,13.20
2017-10-11T05:47:09.426Z,13.20
2017-10-11T05:49:35.552Z,13.20
2017-10-11T05:52:02.067Z,13.30
2017-10-11T05:54:28.900Z,13.30
2017-10-11T05:56:54.977Z,13.30
2017-10-11T05:59:21.843Z,13.40
2017-10-11T06:01:47.970Z,13.30
2017-10-11T06:04:14.784Z,13.40
2017-10-11T06:06:40.896Z,13.40
2017-10-11T06:09:06.965Z,13.50
2017-10-11T06:11:33.105Z,13.40
2017-10-11T06:13:59.221Z,13.50
2017-10-11T06:16:25.289Z,13.50
2017-10-11T06:18:51.361Z,13.50
2017-10-11T06:21:18.205Z,13.60
2017-10-11T06:23:45.013Z,13.60
2017-10-11T06:26:11.106Z,13.60
2017-10-11T06:28:37.943Z,13.70
2017-10-11T06:31:04.150Z,13.60
2017-10-11T06:33:30.237Z,13.70
2017-10-11T06:35:56.358Z,13.70
2017-10-11T06:38:22.451Z,13.80
2017-10-11T06:40:48.545Z,13.70
2017-10-11T06:43:15.390Z,13.70
2017-10-11T06:45:42.485Z,13.70
2017-10-11T06:48:08.585Z,13.80
2017-10-11T06:50:34.685Z,13.80
2017-10-11T06:53:00.764Z,13.90
2017-10-11T06:55:27.712Z,14.10
2017-10-11T06:57:53.830Z,14.10
2017-10-11T07:00:19.970Z,14.10
2017-10-11T07:02:46.038Z,14.20
2017-10-11T07:05:12.885Z,14.30
2017-10-11T07:07:38.957Z,14.20
2017-10-11T07:10:05.120Z,14.40
2017-10-11T07:12:31.213Z,14.40
2017-10-11T07:14:58.057Z,14.30
2017-10-11T07:17:25.087Z,14.30
2017-10-11T07:19:51.209Z,14.30
2017-10-11T07:22:17.284Z,14.40
2017-10-11T07:24:43.357Z,14.30
2017-10-11T07:27:09.508Z,14.40
2017-10-11T07:29:35.649Z,14.40
2017-10-11T07:32:01.761Z,14.40
2017-10-11T07:34:28.601Z,14.30
2017-10-11T07:36:55.412Z,14.40
2017-10-11T07:39:21.945Z,14.30
2017-10-11T07:41:48.141Z,14.40
2017-10-11T07:44:14.977Z,14.40
2017-10-11T07:46:41.077Z,14.40
2017-10-11T07:49:07.173Z,14.60
2017-10-11T07:51:34.009Z,14.70
2017-10-11T07:54:00.170Z,14.70
2017-10-11T07:56:27.013Z,14.90
2017-10-11T07:58:53.837Z,15.00
2017-10-11T08:01:19.926Z,15.00
2017-10-11T08:03:46.805Z,15.10
2017-10-11T08:06:13.414Z,15.10
2017-10-11T08:08:39.533Z,15.10
2017-10-11T08:11:05.702Z,15.20
2017-10-11T08:13:32.552Z,15.20
2017-10-11T08:15:59.444Z,15.20
2017-10-11T08:18:25.618Z,15.10
2017-10-11T08:20:51.718Z,15.20
2017-10-11T08:23:18.081Z,15.20
2017-10-11T08:25:44.206Z,15.20
2017-10-11T08:28:10.805Z,15.30
2017-10-11T08:30:36.896Z,15.20
2017-10-11T08:33:03.041Z,15.30
2017-10-11T08:35:29.117Z,15.30
2017-10-11T08:37:55.189Z,15.40
2017-10-11T08:40:21.293Z,15.50
2017-10-11T08:42:47.419Z,15.90
2017-10-11T08:45:13.497Z,16.80
2017-10-11T08:47:39.616Z,18.00
2017-10-11T08:50:05.906Z,18.10
2017-10-11T08:52:32.004Z,17.30
2017-10-11T08:54:58.852Z,17.10
2017-10-11T08:57:25.845Z,17.40
2017-10-11T08:59:51.919Z,17.30
2017-10-11T09:02:18.152Z,18.40
2017-10-11T09:04:44.262Z,18.60
2017-10-11T09:07:10.735Z,18.20
2017-10-11T09:09:36.891Z,18.40
2017-10-11T09:12:03.006Z,18.00
2017-10-11T09:14:29.089Z,17.70
2017-10-11T09:16:55.958Z,17.20
2017-10-11T09:19:22.053Z,17.20
2017-10-11T09:21:48.144Z,17.00
2017-10-11T09:24:14.236Z,17.00
2017-10-11T09:26:40.314Z,16.70
2017-10-11T09:29:06.419Z,16.80
2017-10-11T09:31:32.572Z,16.80
2017-10-11T09:34:00.503Z,16.90
2017-10-11T09:36:26.901Z,16.80
2017-10-11T09:38:54.097Z,16.80
2017-10-11T09:41:21.015Z,16.70
2017-10-11T09:43:47.865Z,16.80
2017-10-11T09:46:14.989Z,16.90
2017-10-11T09:48:41.273Z,16.80
2017-10-11T09:51:08.105Z,17.00
2017-10-11T09:53:34.253Z,17.00
2017-10-11T09:56:00.339Z,17.00
2017-10-11T09:58:26.537Z,16.80
2017-10-11T10:00:52.652Z,16.70
2017-10-11T10:03:18.831Z,16.70
2017-10-11T10:05:44.965Z,16.70
2017-10-11T10:08:11.146Z,16.80
2017-10-11T10:10:37.276Z,16.70
2017-10-11T10:13:03.433Z,16.90
2017-10-11T10:15:29.612Z,16.80
2017-10-11T10:17:56.507Z,16.70
2017-10-11T10:20:22.749Z,16.70
2017-10-11T10:22:49.011Z,16.70
2017-10-11T10:25:15.117Z,16.60
2017-10-11T10:27:41.211Z,16.40
2017-10-11T10:30:07.355Z,16.30
2017-10-11T10:32:33.434Z,16.20
2017-10-11T10:34:59.638Z,16.20
2017-10-11T10:37:27.537Z,16.10
2017-10-11T10:39:53.606Z,16.10
2017-10-11T10:42:19.781Z,16.00
2017-10-11T10:44:46.263Z,16.00
2017-10-11T10:47:12.362Z,16.00
2017-10-11T10:49:38.460Z,15.90
2017-10-11T10:52:04.580Z,15.90
2017-10-11T10:54:30.699Z,16.00
2017-10-11T10:56:57.725Z,15.90
2017-10-11T10:59:23.824Z,15.90
2017-10-11T11:01:49.972Z,15.80
2017-10-11T11:04:16.081Z,15.60
2017-10-11T11:06:42.233Z,15.30
2017-10-11T11:09:08.300Z,15.20
2017-10-11T11:11:35.853Z,15.20
2017-10-11T11:14:02.008Z,15.10
2017-10-11T11:16:28.258Z,15.10
2017-10-11T11:18:54.576Z,15.00
2017-10-11T11:21:20.752Z,14.90
2017-10-11T11:23:47.097Z,14.80
2017-10-11T11:26:13.325Z,14.70
2017-10-11T11:28:39.441Z,14.80
2017-10-11T11:31:05.729Z,14.90
2017-10-11T11:33:31.875Z,14.90
2017-10-11T11:35:59.468Z,15.00
2017-10-11T11:38:26.406Z,15.00
2017-10-11T11:40:53.189Z,15.10
2017-10-11T11:43:20.053Z,15.00
2017-10-11T11:45:46.916Z,15.00
2017-10-11T11:48:13.738Z,15.00
2017-10-11T11:50:40.720Z,15.00
2017-10-11T11:53:07.109Z,14.90
2017-10-11T11:55:33.185Z,14.80
2017-10-11T11:57:59.299Z,14.90
2017-10-11T12:00:26.117Z,15.00
2017-10-11T12:02:52.273Z,15.00
2017-10-11T12:05:18.416Z,15.00
2017-10-11T12:07:44.501Z,15.00
2017-10-11T12:10:10.593Z,15.10
2017-10-11T12:12:36.745Z,15.30
2017-10-11T12:15:03.868Z,15.50
2017-10-11T12:17:29.975Z,15.50
2017-10-11T12:19:56.052Z,15.50
2017-10-11T12:22:22.213Z,15.60
2017-10-11T12:24:48.333Z,15.70
2017-10-11T12:27:14.429Z,15.60
2017-10-11T12:29:40.512Z,15.50
2017-10-11T12:32:06.662Z,15.40
2017-10-11T12:34:32.770Z,15.40
2017-10-11T12:36:58.916Z,15.50
2017-10-11T12:39:25.013Z,15.50
2017-10-11T12:41:51.156Z,15.50
2017-10-11T12:44:17.274Z,15.60
2017-10-11T12:46:43.407Z,15.70
2017-10-11T12:49:10.257Z,15.70
2017-10-11T12:51:37.133Z,15.70
2017-10-11T12:54:03.257Z,15.70
2017-10-11T12:56:30.117Z,15.80
2017-10-11T12:58:56.210Z,15.80
2017-10-11T13:01:22.314Z,16.00
2017-10-11T13:03:48.450Z,16.30
2017-10-11T13:06:14.541Z,16.40
2017-10-11T13:11:34.369Z,16.70
2017-10-11T13:14:01.220Z,16.90
2017-10-11T13:16:28.015Z,16.80
2017-10-11T13:18:54.097Z,16.80
2017-10-11T13:21:20.194Z,16.80
2017-10-11T13:23:46.372Z,16.90
2017-10-11T13:26:12.523Z,16.90
2017-10-11T13:28:39.746Z,16.90
2017-10-11T13:31:05.976Z,16.80
2017-10-11T13:33:32.159Z,16.90
2017-10-11T13:35:58.909Z,16.90
2017-10-11T13:38:25.076Z,16.80
2017-10-11T13:40:51.244Z,16.70
2017-10-11T13:43:17.356Z,16.80
2017-10-11T13:45:44.165Z,16.60
2017-10-11T13:48:10.250Z,16.60
2017-10-11T13:50:37.277Z,16.50
2017-10-11T13:53:04.149Z,16.50
2017-10-11T13:55:30.308Z,16.40
2017-10-11T13:57:56.480Z,16.30
2017-10-11T14:00:22.594Z,16.00
2017-10-11T14:02:48.665Z,15.80
2017-10-11T14:05:14.786Z,15.60
2017-10-11T14:07:40.869Z,15.40
2017-10-11T14:10:06.997Z,15.40
2017-10-11T14:12:33.141Z,15.40
2017-10-11T14:14:59.218Z,15.30
2017-10-11T14:17:25.421Z,15.30
2017-10-11T14:19:51.546Z,15.30
2017-10-11T14:22:17.636Z,15.30
2017-10-11T14:24:43.713Z,15.40
2017-10-11T14:27:09.842Z,15.40
2017-10-11T14:29:36.001Z,15.40
2017-10-11T14:32:02.121Z,15.40
2017-10-11T14:34:28.486Z,15.40
2017-10-11T14:36:54.605Z,15.40
2017-10-11T14:39:21.017Z,15.40
2017-10-11T14:41:47.176Z,15.40
2017-10-11T14:44:13.258Z,15.40
2017-10-11T14:46:39.337Z,15.40
2017-10-11T14:49:05.450Z,15.40
2017-10-11T14:51:32.289Z,15.50
2017-10-11T14:54:05.437Z,15.50
2017-10-11T14:56:31.545Z,15.50
2017-10-11T14:58:57.609Z,15.60
2017-10-11T15:01:23.765Z,15.60
2017-10-11T15:03:49.845Z,15.70
2017-10-11T15:06:16.661Z,15.70
2017-10-11T15:08:42.781Z,15.70
2017-10-11T15:11:08.953Z,15.70
2017-10-11T15:13:35.071Z,15.70
2017-10-11T15:16:01.234Z,15.70
2017-10-11T15:18:27.433Z,15.70
2017-10-11T15:20:53.517Z,15.70
2017-10-11T15:23:19.628Z,15.70
2017-10-11T15:25:45.728Z,15.70
2017-10-11T15:28:11.871Z,15.70
2017-10-11T15:30:38.052Z,15.70
2017-10-11T15:33:04.192Z,15.80
2017-10-11T15:35:30.317Z,15.80
2017-10-11T15:37:56.422Z,15.80
2017-10-11T15:40:22.553Z,15.80
2017-10-11T15:42:48.662Z,15.80
2017-10-11T15:45:14.753Z,15.80
2017-10-11T15:47:41.664Z,15.80
2017-10-11T15:50:07.772Z,15.80
2017-10-11T15:52:33.849Z,15.90
2017-10-11T15:54:59.961Z,15.80
2017-10-11T15:57:26.044Z,15.80
2017-10-11T16:02:45.824Z,15.80
2017-10-11T16:05:12.018Z,15.80
2017-10-11T16:07:38.852Z,15.80
2017-10-11T16:10:04.970Z,15.80
2017-10-11T16:12:31.107Z,15.80
2017-10-11T16:14:57.195Z,15.90
2017-10-11T16:17:23.309Z,15.80
2017-10-11T16:19:49.427Z,15.80
2017-10-11T16:22:15.550Z,15.80
2017-10-11T16:24:41.704Z,15.80
2017-10-11T16:27:07.948Z,15.80
2017-10-11T16:29:34.088Z,15.80
2017-10-11T16:32:00.169Z,15.70
2017-10-11T16:34:27.055Z,15.80
2017-10-11T16:36:53.173Z,15.80
2017-10-11T16:39:19.268Z,15.80
2017-10-11T16:41:45.350Z,15.70
2017-10-11T16:44:11.440Z,15.80
2017-10-11T16:46:37.507Z,15.80
2017-10-11T16:49:04.404Z,15.80
2017-10-11T16:51:30.500Z,15.80
2017-10-11T16:53:57.374Z,15.70
2017-10-11T16:56:23.939Z,15.70
2017-10-11T16:58:50.309Z,15.70
2017-10-11T17:01:16.540Z,15.70
2017-10-11T17:03:43.106Z,15.70
2017-10-11T17:06:10.142Z,15.60
2017-10-11T17:08:36.382Z,15.60
2017-10-11T17:11:02.574Z,15.70
2017-10-11T17:13:28.664Z,15.70
2017-10-11T17:15:54.793Z,15.60
2017-10-11T17:18:20.931Z,15.60
2017-10-11T17:20:47.025Z,15.60
2017-10-11T17:23:13.850Z,15.60
2017-10-11T17:25:39.968Z,15.60
2017-10-11T17:28:06.053Z,15.60
2017-10-11T17:30:33.211Z,15.50
2017-10-11T17:33:00.062Z,15.50
2017-10-11T17:35:26.907Z,15.50
2017-10-11T17:37:52.977Z,15.50
2017-10-11T17:40:19.118Z,15.50
2017-10-11T17:42:45.207Z,15.50
2017-10-11T17:45:11.301Z,15.50
2017-10-11T17:47:37.389Z,15.50
2017-10-11T17:50:03.501Z,15.50
2017-10-11T17:52:29.597Z,15.50
2017-10-11T17:54:55.729Z,15.40
2017-10-11T17:57:21.808Z,15.50
2017-10-11T17:59:47.869Z,15.40
2017-10-11T18:02:14.032Z,15.40
2017-10-11T18:04:40.862Z,15.40
2017-10-11T18:07:06.963Z,15.40
2017-10-11T18:09:33.076Z,15.40
2017-10-11T18:11:59.153Z,15.40
2017-10-11T18:14:25.290Z,15.30
2017-10-11T18:16:51.403Z,15.40
2017-10-11T18:19:17.593Z,15.30
2017-10-11T18:21:43.777Z,15.30
2017-10-11T18:24:09.921Z,15.30
2017-10-11T18:26:35.994Z,15.30
2017-10-11T18:29:02.107Z,15.30
2017-10-11T18:31:28.245Z,15.30
2017-10-11T18:33:54.337Z,15.30
2017-10-11T18:36:20.461Z,15.20
2017-10-11T18:38:46.568Z,15.30
2017-10-11T18:41:12.642Z,15.20
2017-10-11T18:43:38.716Z,15.20
2017-10-11T18:46:04.925Z,15.20
2017-10-11T18:48:31.753Z,15.20
2017-10-11T18:50:57.824Z,15.20
2017-10-11T18:53:24.684Z,15.20
2017-10-11T18:55:51.529Z,15.10
2017-10-11T18:58:18.349Z,15.10
2017-10-11T19:00:44.447Z,15.10
2017-10-11T19:03:10.629Z,15.10
2017-10-11T19:05:36.705Z,15.10
2017-10-11T19:08:03.629Z,15.10
2017-10-11T19:10:29.721Z,15.10
2017-10-11T19:12:55.900Z,15.10
2017-10-11T19:15:22.055Z,15.00
2017-10-11T19:17:48.142Z,15.10
2017-10-11T19:20:14.233Z,15.00
2017-10-11T19:22:40.447Z,15.00
2017-10-11T19:25:06.548Z,15.00
2017-10-11T19:27:32.625Z,15.00
2017-10-11T19:29:58.794Z,15.10
2017-10-11T19:32:24.925Z,15.00
2017-10-11T19:34:51.059Z,15.10
2017-10-11T19:37:17.263Z,15.00
2017-10-11T19:39:43.403Z,15.00
2017-10-11T19:42:09.536Z,15.00
2017-10-11T19:44:35.730Z,15.00
2017-10-11T19:47:02.565Z,15.00
2017-10-11T19:49:28.643Z,15.00
2017-10-11T19:51:54.894Z,15.00
2017-10-11T19:54:21.150Z,15.00
2017-10-11T19:56:47.316Z,15.00
2017-10-11T19:59:13.463Z,15.00
2017-10-11T20:01:39.572Z,15.00
2017-10-11T20:04:05.663Z,15.00
2017-10-11T20:06:32.621Z,15.00
2017-10-11T20:08:59.478Z,15.00
2017-10-11T20:11:26.293Z,15.00
2017-10-11T20:13:52.458Z,15.00
2017-10-11T20:16:19.328Z,15.00
2017-10-11T20:18:45.405Z,14.90
2017-10-11T20:21:11.524Z,15.00
2017-10-11T20:23:37.651Z,15.00
2017-10-11T20:26:03.773Z,15.00
2017-10-11T20:28:30.631Z,14.90
2017-10-11T20:30:57.546Z,14.90
2017-10-11T20:33:23.609Z,14.90
2017-10-11T20:35:49.725Z,14.90
2017-10-11T20:38:15.797Z,14.90
2017-10-11T20:40:42.625Z,14.90
2017-10-11T20:43:08.816Z,14.90
2017-10-11T20:45:34.893Z,14.90
2017-10-11T20:48:00.981Z,14.90
2017-10-11T20:50:27.120Z,14.90
2017-10-11T20:52:53.283Z,14.90
2017-10-11T20:55:20.396Z,14.90
2017-10-11T20:57:47.290Z,14.90
2017-10-11T21:00:13.400Z,14.80
2017-10-11T21:02:40.241Z,14.80
2017-10-11T21:05:06.357Z,14.80
2017-10-11T21:07:32.453Z,14.80
2017-10-11T21:09:58.569Z,14.80
2017-10-11T21:12:25.524Z,14.80
2017-10-11T21:14:51.655Z,14.80
2017-10-11T21:17:17.770Z,14.80
2017-10-11T21:19:43.930Z,14.80
2017-10-11T21:22:10.752Z,14.80
2017-10-11T21:24:36.838Z,14.80
2017-10-11T21:27:03.820Z,14.80
2017-10-11T21:29:29.903Z,14.70
2017-10-11T21:31:56.140Z,14.80
2017-10-11T21:34:22.312Z,14.80
2017-10-11T21:36:48.402Z,14.80
2017-10-11T21:39:14.488Z,14.80
2017-10-11T21:41:41.373Z,14.70
2017-10-11T21:44:07.468Z,14.70
2017-10-11T21:46:34.395Z,14.70
2017-10-11T21:49:00.562Z,14.70
2017-10-11T21:51:26.649Z,14.70
2017-10-11T21:53:52.821Z,14.70
2017-10-11T21:56:19.030Z,14.60
2017-10-11T21:58:45.120Z,14.60
2017-10-11T22:01:11.432Z,14.60
2017-10-11T22:03:37.818Z,14.60
2017-10-11T22:06:03.945Z,14.60
2017-10-11T22:08:30.776Z,14.60
2017-10-11T22:10:56.909Z,14.60
2017-10-11T22:13:22.990Z,14.60
2017-10-11T22:15:49.085Z,14.60
2017-10-11T22:18:15.193Z,14.60
2017-10-11T22:20:41.276Z,14.60
2017-10-11T22:23:08.286Z,14.60
2017-10-11T22:25:34.389Z,14.50
2017-10-11T22:28:01.249Z,14.50
2017-10-11T22:30:27.438Z,14.50
2017-10-11T22:32:53.612Z,14.50
2017-10-11T22:35:20.521Z,14.50
2017-10-11T22:37:46.600Z,14.50
2017-10-11T22:40:12.729Z,14.50
2017-10-11T22:42:38.801Z,14.50
2017-10-11T22:45:05.628Z,14.40
2017-10-11T22:47:31.814Z,14.40
2017-10-11T22:49:57.984Z,14.40
2017-10-11T22:52:24.101Z,14.50
2017-10-11T22:54:50.213Z,14.40
2017-10-11T22:57:17.034Z,14.40
2017-10-11T22:59:43.128Z,14.40
2017-10-11T23:02:09.265Z,14.40
2017-10-11T23:04:35.426Z,14.40
2017-10-11T23:07:01.598Z,14.40
2017-10-11T23:09:28.553Z,14.40
2017-10-11T23:11:54.649Z,14.40
2017-10-11T23:14:20.744Z,14.40
2017-10-11T23:16:47.593Z,14.40
2017-10-11T23:19:13.762Z,14.40
2017-10-11T23:21:39.829Z,14.40
2017-10-11T23:24:05.991Z,14.40
2017-10-11T23:26:32.100Z,14.40
2017-10-11T23:28:58.200Z,14.40
2017-10-11T23:31:25.098Z,14.40
2017-10-11T23:33:51.248Z,14.40
2017-10-11T23:36:17.373Z,14.30
2017-10-11T23:38:43.501Z,14.40
2017-10-11T23:41:09.617Z,14.30
2017-10-11T23:43:35.709Z,14.30
2017-10-11T23:46:01.837Z,14.40
2017-10-11T23:48:27.901Z,14.30
2017-10-11T23:50:54.007Z,14.30
2017-10-11T23:53:20.135Z,14.30
2017-10-11T23:55:46.228Z,14.30
2017-10-11T23:58:13.050Z,14.30
